Time;durP1;ratioP1;P1;durP2;ratioP2;P2;SDS_P1;SDS_P2;PMS_P1;PMS_P2;Temp;Humidity;BMP_temperature;BMP_pressure;BME280_temperature;BME280_humidity;BME280_pressure;Samples;Min_cycle;Max_cycle;Signal;HPM_P1;HPM_P2
2021/05/01 00:01:41;;;;;;;2.47;1.10;;;;;;;18.29;48.19;101540.88;6299810;22;20002;-81
2021/05/01 00:04:06;;;;;;;1.50;1.10;;;;;;;18.29;47.92;101538.28;6325497;22;20041;-81
2021/05/01 00:06:35;;;;;;;2.25;1.00;;;;;;;18.28;47.99;101536.53;6299513;22;20014;-81
2021/05/01 00:09:01;;;;;;;2.15;1.02;;;;;;;18.28;48.13;101533.94;6324082;22;20019;-81
2021/05/01 00:11:26;;;;;;;1.92;1.00;;;;;;;18.30;48.30;101532.19;6298275;22;20036;-81
2021/05/01 00:13:56;;;;;;;3.72;1.00;;;;;;;18.29;47.82;101526.97;6352214;22;20027;-81
2021/05/01 00:16:31;;;;;;;1.90;0.98;;;;;;;18.28;48.09;101531.31;6299543;22;20003;-81
2021/05/01 00:18:58;;;;;;;2.50;1.15;;;;;;;18.26;48.04;101521.78;6352417;22;19998;-81
2021/05/01 00:21:27;;;;;;;1.60;0.90;;;;;;;18.28;48.04;101523.50;6352683;22;20010;-78
2021/05/01 00:23:53;;;;;;;1.30;0.98;;;;;;;18.27;48.18;101524.38;6326143;22;20006;-79
2021/05/01 00:26:19;;;;;;;1.80;1.00;;;;;;;18.26;48.23;101524.38;6352481;22;20009;-81
2021/05/01 00:28:45;;;;;;;2.60;1.05;;;;;;;18.25;48.08;101522.66;6327016;22;20007;-79
2021/05/01 00:31:10;;;;;;;1.80;1.20;;;;;;;18.25;48.14;101518.31;6327577;22;20006;-79
2021/05/01 00:33:38;;;;;;;2.03;1.08;;;;;;;18.26;47.91;101519.16;6358457;22;20015;-81
2021/05/01 00:36:04;;;;;;;1.40;0.98;;;;;;;18.25;48.13;101518.31;6335217;22;20014;-81
2021/05/01 00:38:29;;;;;;;1.90;1.10;;;;;;;18.27;48.05;101524.38;6338725;22;19991;-81
2021/05/01 00:40:55;;;;;;;1.20;0.88;;;;;;;18.24;48.10;101520.91;6336121;22;20032;-81
2021/05/01 00:43:27;;;;;;;1.67;0.98;;;;;;;18.24;47.84;101516.56;6331591;22;20003;-79
2021/05/01 00:45:53;;;;;;;1.45;0.90;;;;;;;18.24;48.03;101513.94;6358833;22;19999;-78
2021/05/01 00:48:18;;;;;;;1.73;1.10;;;;;;;18.25;48.19;101520.91;6330766;22;20005;-79
2021/05/01 00:50:44;;;;;;;2.35;1.00;;;;;;;18.23;47.89;101516.59;6357124;22;20007;-78
2021/05/01 00:53:09;;;;;;;1.90;1.02;;;;;;;18.24;47.73;101519.16;6355623;22;20041;-79
2021/05/01 00:55:36;;;;;;;1.83;1.00;;;;;;;18.24;47.96;101505.28;6353125;22;20059;-79
2021/05/01 00:58:04;;;;;;;1.33;0.95;;;;;;;18.23;47.97;101511.38;6357098;22;20046;-79
2021/05/01 01:03:22;;;;;;;2.20;1.10;;;;;;;18.22;47.89;101510.47;6359024;22;20025;-78
2021/05/01 01:05:47;;;;;;;1.30;1.00;;;;;;;18.21;47.87;101513.97;6329540;22;20022;-79
2021/05/01 01:08:14;;;;;;;2.25;1.15;;;;;;;18.19;47.88;101513.09;6329131;22;20010;-79
2021/05/01 01:10:43;;;;;;;1.58;0.85;;;;;;;18.22;48.05;101512.22;6325519;22;20009;-78
2021/05/01 01:13:12;;;;;;;1.00;0.70;;;;;;;18.20;47.84;101514.81;6326745;22;19999;-78
2021/05/01 01:15:38;;;;;;;1.10;0.85;;;;;;;18.20;47.90;101512.22;6356007;22;19999;-78
2021/05/01 01:18:03;;;;;;;2.35;1.20;;;;;;;18.18;47.91;101508.78;6355547;22;19999;-81
2021/05/01 01:20:29;;;;;;;1.60;1.02;;;;;;;18.19;47.72;101507.91;6327483;22;20176;-78
2021/05/01 01:22:55;;;;;;;1.27;1.00;;;;;;;18.18;47.71;101503.56;6355363;22;20009;-79
2021/05/01 01:25:24;;;;;;;2.05;1.00;;;;;;;18.18;47.81;101503.56;6355207;22;19995;-81
2021/05/01 01:27:52;;;;;;;1.67;1.10;;;;;;;18.18;47.88;101505.28;6353316;22;20448;-81
2021/05/01 01:30:24;;;;;;;2.58;1.10;;;;;;;18.17;47.86;101501.81;6327968;22;20015;-78
2021/05/01 01:32:49;;;;;;;1.42;0.90;;;;;;;18.19;47.79;101507.03;6354816;22;20004;-78
2021/05/01 01:35:18;;;;;;;1.50;1.00;;;;;;;18.19;47.75;101505.28;6301731;22;20010;-79
2021/05/01 01:37:45;;;;;;;1.35;1.00;;;;;;;18.17;47.78;101504.41;6329863;22;19999;-79
2021/05/01 01:40:14;;;;;;;1.23;0.90;;;;;;;18.16;47.74;101505.31;6356670;22;19995;-78
2021/05/01 01:42:43;;;;;;;1.55;1.00;;;;;;;18.16;47.53;101502.69;6326877;22;20033;-81
2021/05/01 01:45:10;;;;;;;1.92;1.23;;;;;;;18.16;47.82;101505.31;6299241;22;20011;-78
2021/05/01 01:47:36;;;;;;;1.95;0.98;;;;;;;18.16;47.70;101509.63;6352429;22;20006;-78
2021/05/01 01:50:07;;;;;;;1.80;0.90;;;;;;;18.15;47.75;101511.38;6300470;22;20011;-78
2021/05/01 01:52:34;;;;;;;1.85;1.10;;;;;;;18.15;47.92;101500.94;6352680;22;20073;-78
2021/05/01 01:55:00;;;;;;;1.52;1.00;;;;;;;18.15;47.62;101500.09;6325543;22;20011;-81
2021/05/01 01:57:26;;;;;;;1.30;0.90;;;;;;;18.16;47.99;101502.69;6354480;22;20074;-78
2021/05/01 01:59:52;;;;;;;2.20;1.00;;;;;;;18.12;47.77;101498.38;6352619;22;20432;-80
2021/05/01 02:02:19;;;;;;;1.38;1.10;;;;;;;18.14;47.91;101500.94;6353463;22;20014;-81
2021/05/01 02:04:45;;;;;;;2.17;1.17;;;;;;;18.13;47.74;101505.28;6300420;22;20007;-80
2021/05/01 02:07:10;;;;;;;1.83;1.13;;;;;;;18.16;47.66;101504.41;6326687;22;20022;-80
2021/05/01 02:09:36;;;;;;;1.55;0.93;;;;;;;18.15;47.67;101502.69;6331402;22;20007;-81
2021/05/01 02:12:07;;;;;;;1.23;1.00;;;;;;;18.15;47.64;101494.88;6359038;22;20025;-80
2021/05/01 02:18:01;;;;;;;1.33;1.00;;;;;;;18.13;47.43;101500.09;6363030;22;20037;-80
2021/05/01 02:20:33;;;;;;;2.67;1.00;;;;;;;18.12;47.70;101494.88;6332638;22;19995;-81
2021/05/01 02:23:05;;;;;;;1.55;1.02;;;;;;;18.12;47.61;101500.06;6305652;22;19999;-80
2021/05/01 02:28:58;;;;;;;1.10;0.80;;;;;;;18.11;47.64;101493.16;6360649;22;20018;-78
2021/05/01 02:34:26;;;;;;;1.75;0.80;;;;;;;18.11;47.59;101487.94;6358900;22;20018;-80
2021/05/01 02:36:55;;;;;;;1.33;0.77;;;;;;;18.11;47.55;101491.41;6331841;22;20032;-80
2021/05/01 02:39:30;;;;;;;2.13;1.00;;;;;;;18.11;47.58;101494.00;6332428;22;20010;-80
2021/05/01 02:42:23;;;;;;;1.58;1.00;;;;;;;18.10;47.88;101484.47;6360188;22;20018;-80
2021/05/01 02:45:15;;;;;;;1.05;0.82;;;;;;;18.09;47.65;101491.44;6333710;22;20006;-80
2021/05/01 02:47:42;;;;;;;3.50;1.00;;;;;;;18.09;47.57;101490.53;6275453;22;20462;-80
2021/05/01 02:50:20;;;;;;;1.23;0.85;;;;;;;18.07;47.47;101489.66;6270850;22;20034;-80
2021/05/01 02:59:44;;;;;;;1.77;0.90;;;;;;;18.07;47.49;101476.66;6329613;22;20022;-80
2021/05/01 03:02:09;;;;;;;2.47;0.82;;;;;;;18.07;47.73;101469.72;6298923;22;20062;-80
2021/05/01 03:04:35;;;;;;;1.17;0.90;;;;;;;18.07;47.35;101468.81;6304163;22;20014;-80
2021/05/01 03:13:52;;;;;;;1.27;0.90;;;;;;;18.06;47.44;101454.94;6325797;22;20037;-80
2021/05/01 03:29:24;;;;;;;2.25;1.02;;;;;;;18.05;47.45;101454.94;6398179;22;20029;-80
2021/05/01 03:31:50;;;;;;;1.58;0.90;;;;;;;18.03;47.54;101454.97;6370209;22;20011;-79
2021/05/01 03:38:04;;;;;;;1.60;1.02;;;;;;;18.04;47.44;101453.22;6398817;22;20044;-80
2021/05/01 03:40:39;;;;;;;1.20;0.93;;;;;;;18.01;47.50;101448.03;6397611;22;19998;-80
2021/05/01 03:46:35;;;;;;;1.17;0.90;;;;;;;18.00;47.34;101449.75;6398922;22;20009;-80
2021/05/01 03:49:02;;;;;;;1.10;0.80;;;;;;;18.03;47.38;101454.06;6399114;22;19987;-79
2021/05/01 03:55:23;;;;;;;1.33;0.93;;;;;;;17.99;47.60;101444.56;6399459;22;20046;-79
2021/05/01 03:58:14;;;;;;;1.08;0.88;;;;;;;18.00;47.58;101454.09;6397215;22;20044;-79
2021/05/01 04:00:52;;;;;;;1.50;0.90;;;;;;;18.00;47.59;101449.75;6373406;22;20013;-79
2021/05/01 04:03:19;;;;;;;0.93;0.70;;;;;;;17.98;47.60;101451.47;6398891;22;20017;-79
2021/05/01 04:05:56;;;;;;;1.83;1.10;;;;;;;17.97;47.42;101441.94;6398721;22;19986;-81
2021/05/01 04:11:46;;;;;;;1.48;1.00;;;;;;;17.98;47.34;101448.88;6398791;22;20047;-79
2021/05/01 04:17:55;;;;;;;1.10;0.90;;;;;;;18.00;47.32;101447.13;6399127;22;20024;-79
2021/05/01 04:59:02;;;;;;;1.25;0.90;;;;;;;18.16;46.69;101447.09;6286545;22;20125;31
2021/05/01 05:11:57;;;;;;;1.17;0.80;;;;;;;18.24;46.50;101459.25;6244329;23;20020;-81
2021/05/01 05:17:55;;;;;;;1.02;0.73;;;;;;;18.34;46.52;101448.81;6379579;22;20017;-80
2021/05/01 05:20:43;;;;;;;0.80;0.60;;;;;;;18.53;45.97;101454.81;6361954;22;20019;-80
2021/05/01 05:23:11;;;;;;;1.27;0.90;;;;;;;18.81;45.70;101446.03;6273359;22;20015;-80
2021/05/01 05:31:56;;;;;;;0.90;0.70;;;;;;;19.48;44.33;101446.50;6392462;22;20029;-89
2021/05/01 05:34:22;;;;;;;2.92;0.95;;;;;;;19.57;44.24;101446.41;6380023;22;20013;-89
2021/05/01 05:36:48;;;;;;;1.77;0.88;;;;;;;19.65;43.97;101452.44;6346975;22;20002;-87
2021/05/01 05:39:14;;;;;;;0.70;0.70;;;;;;;19.73;43.96;101449.81;6373290;22;20055;-90
2021/05/01 05:41:40;;;;;;;1.42;0.80;;;;;;;19.52;44.71;101456.91;6345716;22;20010;-88
2021/05/01 05:44:05;;;;;;;1.08;0.73;;;;;;;19.61;44.43;101457.72;6345190;22;20404;-90
2021/05/01 05:46:31;;;;;;;1.20;0.80;;;;;;;19.72;43.77;101455.91;6346112;22;20003;-88
2021/05/01 05:48:56;;;;;;;3.60;1.00;;;;;;;19.63;44.33;101462.03;6345268;22;20012;-91
2021/05/01 05:51:21;;;;;;;2.15;0.93;;;;;;;19.87;43.97;101462.75;6346079;22;20024;-89
2021/05/01 05:53:48;;;;;;;6.05;1.10;;;;;;;19.90;43.81;101467.91;6345596;22;19999;-89
2021/05/01 05:56:13;;;;;;;8.00;1.20;;;;;;;19.57;44.89;101469.91;6345139;22;20329;-91
2021/05/01 05:58:41;;;;;;;3.65;1.00;;;;;;;19.42;45.17;101465.66;6319103;22;20011;-88
2021/05/01 06:01:07;;;;;;;4.63;0.80;;;;;;;19.53;44.87;101469.09;6345328;22;20010;-90
2021/05/01 06:03:34;;;;;;;11.95;1.60;;;;;;;19.83;43.97;101463.63;6372666;22;20002;-89
2021/05/01 06:06:05;;;;;;;2.47;1.05;;;;;;;20.12;43.39;101461.63;6372464;22;20069;-91
2021/05/01 06:08:32;;;;;;;2.17;1.00;;;;;;;20.29;42.97;101465.78;6344449;22;19998;-92
2021/05/01 06:11:01;;;;;;;2.75;1.08;;;;;;;20.14;43.46;101458.97;6344672;22;20006;-89
2021/05/01 06:13:28;;;;;;;3.10;1.27;;;;;;;20.19;43.33;101461.56;6351947;22;20002;-90
2021/05/01 06:15:58;;;;;;;4.90;1.00;;;;;;;19.65;44.75;101469.88;6370814;22;20006;-91
2021/05/01 06:18:25;;;;;;;3.17;1.10;;;;;;;19.70;44.44;101468.09;6371037;22;20081;-91
2021/05/01 06:20:50;;;;;;;2.05;1.10;;;;;;;20.02;43.90;101465.19;6372945;22;19999;-89
2021/05/01 06:23:17;;;;;;;2.20;1.05;;;;;;;20.33;43.25;101473.56;6372585;22;20006;-89
2021/05/01 06:25:44;;;;;;;3.00;1.00;;;;;;;20.41;43.02;101470.91;6370974;22;20006;-91
2021/05/01 06:28:10;;;;;;;5.07;1.10;;;;;;;20.27;43.32;101478.00;6372268;22;20010;-92
2021/05/01 06:30:39;;;;;;;1.83;1.10;;;;;;;20.12;43.72;101481.63;6344831;22;20020;-92
2021/05/01 06:33:09;;;;;;;5.03;1.20;;;;;;;19.72;44.56;101479.41;6372876;22;20013;-89
2021/05/01 06:35:36;;;;;;;1.88;1.00;;;;;;;19.40;45.54;101488.31;6371201;22;20013;-92
2021/05/01 06:38:02;;;;;;;1.85;1.23;;;;;;;19.28;45.25;101484.03;6371699;22;20006;-87
2021/05/01 06:40:45;;;;;;;3.25;1.20;;;;;;;19.10;45.60;101486.78;6374451;22;20078;-82
2021/05/01 06:43:35;;;;;;;2.00;0.95;;;;;;;19.03;45.35;101487.66;6360580;22;20014;-82
2021/05/01 06:46:03;;;;;;;1.65;1.00;;;;;;;18.97;45.47;101487.72;6392847;22;20018;-79
2021/05/01 06:48:46;;;;;;;2.00;1.05;;;;;;;18.96;45.62;101492.03;6394451;22;20006;-79
2021/05/01 06:51:42;;;;;;;3.15;0.93;;;;;;;18.97;45.52;101485.97;6394525;22;19987;-80
2021/05/01 06:54:09;;;;;;;3.88;1.00;;;;;;;19.85;43.67;101477.56;6382917;22;20002;-92
2021/05/01 06:56:39;;;;;;;4.85;0.88;;;;;;;19.89;43.71;101474.91;6378372;22;20009;-90
2021/05/01 06:59:07;;;;;;;1.45;0.95;;;;;;;20.47;42.49;101485.63;6377404;22;20006;-92
2021/05/01 07:01:33;;;;;;;2.35;1.00;;;;;;;20.77;41.88;101475.72;6376730;22;20056;-94
2021/05/01 07:04:00;;;;;;;1.77;0.93;;;;;;;20.08;43.35;101477.34;6372560;22;20002;-91
2021/05/01 07:06:26;;;;;;;2.17;1.15;;;;;;;19.66;44.53;101487.25;6319991;22;20315;-89
2021/05/01 07:08:51;;;;;;;2.67;0.90;;;;;;;19.41;45.14;101483.97;6372158;22;20036;-91
2021/05/01 07:11:17;;;;;;;1.75;1.35;;;;;;;19.36;45.28;101476.16;6371692;22;20006;-91
2021/05/01 07:13:42;;;;;;;2.30;1.00;;;;;;;19.44;44.96;101478.72;6372519;22;20055;-91
2021/05/01 07:16:12;;;;;;;2.75;1.20;;;;;;;19.45;44.90;101483.06;6371307;22;20002;-89
2021/05/01 07:18:38;;;;;;;3.35;0.85;;;;;;;19.64;44.58;101484.66;6365047;22;20035;-92
2021/05/01 07:21:06;;;;;;;1.92;0.90;;;;;;;20.17;43.26;101477.25;6372653;22;20035;-91
2021/05/01 07:23:31;;;;;;;1.38;1.08;;;;;;;19.72;44.27;101480.25;6370583;22;20006;-92
2021/05/01 07:25:57;;;;;;;1.45;0.90;;;;;;;19.37;45.11;101490.94;6371415;22;20010;-88
2021/05/01 07:28:26;;;;;;;1.70;0.90;;;;;;;19.23;45.58;101491.03;6345735;22;20086;-88
2021/05/01 07:30:54;;;;;;;1.25;0.90;;;;;;;19.29;45.25;101491.00;6375286;22;20393;-85
2021/05/01 07:33:25;;;;;;;2.25;1.00;;;;;;;19.22;45.42;101491.91;6374331;22;20333;-80
2021/05/01 07:35:55;;;;;;;1.48;0.85;;;;;;;19.14;45.57;101490.22;6378115;22;20002;-80
2021/05/01 07:38:23;;;;;;;2.10;0.95;;;;;;;19.05;45.83;101494.63;6379185;22;20014;-80
2021/05/01 07:40:51;;;;;;;1.63;0.80;;;;;;;19.01;45.72;101487.69;6382904;22;20522;-81
2021/05/01 07:43:21;;;;;;;1.08;0.90;;;;;;;19.01;45.94;101486.78;6384719;22;20081;-80
2021/05/01 07:45:47;;;;;;;0.80;0.70;;;;;;;18.98;45.75;101490.28;6414529;22;20017;-80
2021/05/01 07:48:14;;;;;;;1.02;0.77;;;;;;;19.04;45.50;101486.78;6366152;22;20003;-80
2021/05/01 07:50:41;;;;;;;2.53;0.85;;;;;;;19.08;45.72;101499.81;6394427;22;20310;-80
2021/05/01 07:53:07;;;;;;;3.03;1.00;;;;;;;19.09;45.59;101498.91;6385512;22;20013;-81
2021/05/01 07:55:33;;;;;;;2.05;1.00;;;;;;;19.14;45.23;101500.66;6385051;22;20010;-80
2021/05/01 07:57:58;;;;;;;1.23;0.90;;;;;;;19.15;45.03;101495.44;6374247;22;20055;-80
2021/05/01 08:00:23;;;;;;;1.48;0.90;;;;;;;19.17;45.06;101488.47;6373475;22;20002;-80
2021/05/01 08:02:49;;;;;;;1.17;0.90;;;;;;;19.24;45.10;101494.50;6375037;22;19998;-80
2021/05/01 08:05:17;;;;;;;2.88;1.13;;;;;;;19.30;45.12;101497.09;6373511;22;20002;-79
2021/05/01 08:07:43;;;;;;;11.55;1.33;;;;;;;19.41;45.17;101491.78;6373336;22;20011;-80
2021/05/01 08:10:09;;;;;;;8.48;1.23;;;;;;;19.72;44.55;101497.69;6371763;22;20378;-79
2021/05/01 08:12:35;;;;;;;9.02;1.27;;;;;;;19.93;44.05;101494.88;6369743;22;20003;-85
2021/05/01 08:15:02;;;;;;;6.93;1.38;;;;;;;20.24;43.43;101497.22;6343738;22;20097;-81
2021/05/01 08:17:27;;;;;;;15.30;4.72;;;;;;;20.30;42.94;101491.91;6371322;22;20083;-81
2021/05/01 08:19:53;;;;;;;19.13;4.95;;;;;;;20.42;43.10;101503.13;6370721;22;20332;-80
2021/05/01 08:22:18;;;;;;;17.70;4.75;;;;;;;20.31;43.40;101492.78;6345121;22;20017;-84
2021/05/01 08:24:44;;;;;;;23.48;4.82;;;;;;;20.00;44.09;101493.09;6320011;22;20349;-84
2021/05/01 08:27:09;;;;;;;26.33;5.63;;;;;;;19.73;44.77;101507.25;6373424;22;20459;-79
2021/05/01 08:29:34;;;;;;;21.30;4.82;;;;;;;19.64;44.79;101502.94;6373807;22;20062;-80
2021/05/01 08:32:00;;;;;;;15.55;4.93;;;;;;;19.80;44.37;101497.63;6372401;22;20406;-80
2021/05/01 08:34:25;;;;;;;11.85;4.05;;;;;;;19.66;44.62;101501.19;6346494;22;20037;-80
2021/05/01 08:36:51;;;;;;;18.67;4.60;;;;;;;19.84;44.25;101505.44;6371739;22;20457;-83
2021/05/01 08:39:16;;;;;;;13.48;4.20;;;;;;;19.81;44.28;101508.03;6371653;22;20010;-82
2021/05/01 08:41:42;;;;;;;15.25;3.55;;;;;;;19.72;44.71;101501.16;6319456;22;20066;-82
2021/05/01 08:44:10;;;;;;;11.05;3.25;;;;;;;19.59;44.98;101506.47;6345013;22;20002;-83
2021/05/01 08:46:36;;;;;;;11.18;3.60;;;;;;;19.47;45.01;101502.19;6373695;22;20034;-78
2021/05/01 08:49:09;;;;;;;11.40;3.15;;;;;;;19.45;45.17;101507.41;6374241;22;19999;-78
2021/05/01 08:51:36;;;;;;;12.73;3.20;;;;;;;19.48;45.03;101496.94;6375061;22;19998;-78
2021/05/01 08:54:03;;;;;;;9.10;3.00;;;;;;;19.60;44.70;101509.06;6375102;22;20271;-79
2021/05/01 09:00:09;;;;;;;9.68;3.17;;;;;;;19.61;44.99;101507.31;6315673;22;20048;-80
2021/05/01 09:02:36;;;;;;;4.82;2.60;;;;;;;19.57;44.99;101500.38;6323292;22;20083;-86
2021/05/01 09:05:03;;;;;;;10.13;2.90;;;;;;;19.70;44.86;101502.03;6270304;22;20059;-84
2021/05/01 09:07:29;;;;;;;6.10;2.72;;;;;;;19.69;44.82;101500.28;6323727;22;20007;-89
2021/05/01 09:09:56;;;;;;;6.88;2.60;;;;;;;19.65;44.78;101498.59;6328632;22;19999;-88
2021/05/01 09:12:56;;;;;;;8.75;3.20;;;;;;;19.58;44.87;101499.53;6301092;22;20069;-88
2021/05/01 09:15:29;;;;;;;7.78;2.85;;;;;;;19.55;45.11;101504.75;6177381;22;20055;-91
2021/05/01 09:17:59;;;;;;;6.07;2.33;;;;;;;19.55;45.15;101502.13;6285275;22;20018;-81
2021/05/01 09:20:25;;;;;;;10.55;2.85;;;;;;;19.44;45.48;101496.97;6264939;22;20011;-87
2021/05/01 09:23:02;;;;;;;7.22;2.70;;;;;;;19.37;45.49;101504.00;6262313;22;20083;-84
2021/05/01 09:25:54;;;;;;;10.07;2.90;;;;;;;19.40;45.28;101500.47;6262188;22;20446;-88
2021/05/01 09:28:39;;;;;;;5.57;2.35;;;;;;;19.61;44.61;101502.94;6258102;22;20003;-85
2021/05/01 09:31:16;;;;;;;4.78;2.30;;;;;;;19.75;44.78;101497.69;6287787;22;20484;-86
2021/05/01 09:33:43;;;;;;;5.53;2.20;;;;;;;19.79;44.78;101501.97;6285354;22;20000;-86
2021/05/01 09:36:28;;;;;;;11.05;2.00;;;;;;;19.87;44.72;101507.13;6284673;22;20000;-86
2021/05/01 09:39:37;;;;;;;6.20;2.20;;;;;;;20.00;45.12;101502.69;6256803;22;20003;-87
2021/05/01 09:42:22;;;;;;;8.45;2.20;;;;;;;19.97;45.70;101502.69;6280730;22;20451;-87
2021/05/01 09:45:30;;;;;;;8.73;2.33;;;;;;;19.98;45.58;101496.59;6255564;22;20025;-88
2021/05/01 09:48:24;;;;;;;8.13;2.22;;;;;;;19.83;51.65;101497.59;6263022;22;20419;-85
2021/05/01 09:51:10;;;;;;;7.00;2.38;;;;;;;19.35;50.97;101504.88;6201601;23;20005;-84
2021/05/01 09:53:42;;;;;;;4.55;2.20;;;;;;;19.13;54.87;101504.16;6266980;22;20018;-84
2021/05/01 09:56:24;;;;;;;6.60;2.30;;;;;;;18.87;52.39;101516.41;6339069;22;20042;-80
2021/05/01 10:01:38;;;;;;;4.80;2.33;;;;;;;18.79;54.84;101517.31;6385820;22;20032;-81
2021/05/01 10:08:29;;;;;;;6.75;2.15;;;;;;;18.66;54.42;101517.34;6385223;22;20029;-82
2021/05/01 10:18:37;;;;;;;5.50;1.95;;;;;;;18.63;57.85;101521.69;6365489;22;20047;-82
2021/05/01 11:17:05;;;;;;;4.47;2.00;;;;;;;18.48;56.39;101530.41;6319236;22;20048;-84
2021/05/01 11:43:25;;;;;;;4.07;2.53;;;;;;;18.72;53.28;101545.13;6323251;22;20041;-85
2021/05/01 15:00:21;;;;;;;4.20;1.75;;;;;;;18.48;59.74;101512.16;6353738;22;20052;-86
